Time;durP1;ratioP1;P1;durP2;ratioP2;P2;SDS_P1;SDS_P2;PMS_P1;PMS_P2;Temp;Humidity;BMP_temperature;BMP_pressure;BME280_temperature;BME280_humidity;BME280_pressure;Samples;Min_cycle;Max_cycle;Signal;HPM_P1;HPM_P2
2022/12/25 00:02:28;;;;;;;;;;;;;;;12.75;59.17;100975.20;2325180;76;50129;-76
2022/12/25 00:05:30;;;;;;;;;;;;;;;12.76;59.12;100972.05;2345058;76;50273;-76
2022/12/25 00:08:31;;;;;;;;;;;;;;;12.75;59.20;100969.90;2324943;74;50711;-75
2022/12/25 00:11:33;;;;;;;;;;;;;;;12.74;59.26;100989.47;2345179;76;52221;-76
2022/12/25 00:14:34;;;;;;;;;;;;;;;12.75;59.18;100981.02;2325132;76;52518;-76
2022/12/25 00:17:36;;;;;;;;;;;;;;;12.73;59.24;100981.13;2325103;76;51321;-76
2022/12/25 00:20:38;;;;;;;;;;;;;;;12.74;59.15;100972.21;2345105;76;51450;-76
2022/12/25 00:23:39;;;;;;;;;;;;;;;12.75;59.14;100985.83;2345164;75;51433;-76
2022/12/25 00:26:41;;;;;;;;;;;;;;;12.73;59.22;100975.83;2314723;75;50924;-76
2022/12/25 00:29:42;;;;;;;;;;;;;;;12.73;59.25;100974.98;2377774;73;50328;-76
2022/12/25 00:32:44;;;;;;;;;;;;;;;12.72;59.26;100979.47;2347312;75;50333;-76
2022/12/25 00:35:47;;;;;;;;;;;;;;;12.73;59.25;100990.42;2347196;75;50563;-76
2022/12/25 00:38:49;;;;;;;;;;;;;;;12.72;59.21;100986.11;2345387;75;49703;-76
2022/12/25 00:45:11;;;;;;;;;;;;;;;12.74;59.23;100994.78;2378315;75;22307;-76
2022/12/25 00:48:12;;;;;;;;;;;;;;;12.74;59.22;100997.44;2347510;73;51637;-76
2022/12/25 00:51:14;;;;;;;;;;;;;;;12.75;59.14;100998.27;2347198;75;51273;-77
2022/12/25 00:54:16;;;;;;;;;;;;;;;12.75;59.14;101000.92;2371704;75;50687;-76
2022/12/25 00:57:18;;;;;;;;;;;;;;;12.74;59.17;101002.75;2355859;75;50442;-76
2022/12/25 01:00:20;;;;;;;;;;;;;;;12.73;59.28;101026.77;2345139;74;51561;-76
2022/12/25 01:03:21;;;;;;;;;;;;;;;12.72;59.27;101024.61;2299453;76;52359;-76
2022/12/25 01:06:23;;;;;;;;;;;;;;;12.74;59.22;101026.64;2325026;76;50464;-76
2022/12/25 01:12:44;;;;;;;;;;;;;;;12.73;59.23;101034.23;2345433;76;22375;-76
2022/12/25 01:15:46;;;;;;;;;;;;;;;12.76;59.11;101035.29;2299500;76;49637;-76
2022/12/25 01:18:48;;;;;;;;;;;;;;;12.73;59.25;101036.89;2345018;74;51612;-77
2022/12/25 01:21:49;;;;;;;;;;;;;;;12.73;59.23;101036.06;2345254;76;51490;-77
2022/12/25 01:24:51;;;;;;;;;;;;;;;12.73;59.21;101043.53;2326556;75;50417;-76
2022/12/25 01:27:52;;;;;;;;;;;;;;;12.73;59.23;101038.22;2330225;74;50889;-76
2022/12/25 01:30:54;;;;;;;;;;;;;;;12.73;59.23;101047.52;2325650;76;50360;-75
2022/12/25 01:33:56;;;;;;;;;;;;;;;12.73;59.27;101051.50;2347779;75;50658;-76
2022/12/25 01:36:57;;;;;;;;;;;;;;;12.73;59.29;101061.28;2313511;76;50500;-76
2022/12/25 01:39:59;;;;;;;;;;;;;;;12.73;59.21;101062.12;2288416;77;51206;-76
2022/12/25 01:43:00;;;;;;;;;;;;;;;12.72;59.27;101057.80;2289767;76;50697;-77
2022/12/25 01:46:06;;;;;;;;;;;;;;;12.73;59.25;101075.39;2311594;76;50755;-77
2022/12/25 01:49:12;;;;;;;;;;;;;;;12.72;59.33;101069.74;2306996;76;22364;-77
2022/12/25 01:52:15;;;;;;;;;;;;;;;12.72;59.36;101070.23;2314759;75;51251;-76
2022/12/25 01:55:17;;;;;;;;;;;;;;;12.74;59.24;101073.58;2325766;76;50393;-78
2022/12/25 01:58:18;;;;;;;;;;;;;;;12.73;59.24;101068.75;2345469;74;50337;-77
2022/12/25 02:01:20;;;;;;;;;;;;;;;12.72;59.27;101072.39;2345072;76;50292;-76
2022/12/25 02:04:23;;;;;;;;;;;;;;;12.72;59.30;101067.58;2325142;76;50129;-76
2022/12/25 02:07:25;;;;;;;;;;;;;;;12.72;59.20;101075.05;2344851;75;50848;-75
2022/12/25 02:10:27;;;;;;;;;;;;;;;12.72;59.21;101073.73;2344947;74;50029;-75
2022/12/25 02:13:28;;;;;;;;;;;;;;;12.72;59.26;101076.38;2345066;75;50312;-76
2022/12/25 02:16:33;;;;;;;;;;;;;;;12.72;59.26;101087.00;2324852;76;51410;-76
2022/12/25 02:19:39;;;;;;;;;;;;;;;12.72;59.31;101083.52;2345405;74;22826;-76
2022/12/25 02:22:59;;;;;;;;;;;;;;;12.71;59.24;101081.81;2345111;76;50832;-77
2022/12/25 02:26:15;;;;;;;;;;;;;;;12.72;59.24;101083.02;2359045;75;51501;-77
2022/12/25 02:29:35;;;;;;;;;;;;;;;12.72;59.18;101084.34;2347333;75;52559;-78
2022/12/25 02:32:44;;;;;;;;;;;;;;;12.73;59.21;101091.81;2377848;75;51414;-77
2022/12/25 02:35:47;;;;;;;;;;;;;;;12.71;59.29;101093.76;2377806;75;50746;-77
2022/12/25 02:42:11;;;;;;;;;;;;;;;12.71;59.30;101096.41;2378243;73;22361;-77
2022/12/25 03:08:37;;;;;;;;;;;;;;;12.71;59.20;101105.21;2345327;74;22378;-77
2022/12/25 03:11:39;;;;;;;;;;;;;;;12.73;59.17;101099.29;2325259;76;52815;-76
2022/12/25 03:18:01;;;;;;;;;;;;;;;12.69;59.28;101100.55;2345325;74;22297;-77
2022/12/25 03:27:41;;;;;;;;;;;;;;;12.69;59.29;101095.23;2340260;74;22542;-76
2022/12/25 04:37:47;;;;;;;;;;;;;;;12.67;59.29;101147.62;2377997;73;22449;-76
2022/12/25 04:40:49;;;;;;;;;;;;;;;12.69;59.27;101147.47;2377839;73;50641;-76
2022/12/25 04:43:51;;;;;;;;;;;;;;;12.67;59.30;101150.28;2320758;75;50059;-77
2022/12/25 04:46:52;;;;;;;;;;;;;;;12.67;59.31;101160.06;2347142;75;50381;-77
2022/12/25 04:49:54;;;;;;;;;;;;;;;12.66;59.31;101174.30;2377787;73;50643;-77
2022/12/25 04:52:55;;;;;;;;;;;;;;;12.68;59.34;101177.66;2377929;74;51488;-76
2022/12/25 04:56:00;;;;;;;;;;;;;;;12.66;59.33;101176.45;2337469;75;51048;-77
2022/12/25 04:59:02;;;;;;;;;;;;;;;12.67;59.29;101174.17;2347828;75;50678;-78
2022/12/25 05:02:04;;;;;;;;;;;;;;;12.68;59.25;101169.20;2378581;75;50317;-78
2022/12/25 05:05:05;;;;;;;;;;;;;;;12.68;59.26;101173.19;2378413;75;50763;-78
2022/12/25 05:08:07;;;;;;;;;;;;;;;12.68;59.21;101163.89;2378170;73;51619;-78
2022/12/25 05:11:09;;;;;;;;;;;;;;;12.69;59.18;101154.98;2378376;75;51307;-78
2022/12/25 05:14:11;;;;;;;;;;;;;;;12.69;59.23;101160.75;2378594;75;51503;-78
2022/12/25 05:17:12;;;;;;;;;;;;;;;12.68;59.20;101159.91;2347607;75;51455;-77
2022/12/25 05:20:14;;;;;;;;;;;;;;;12.68;59.27;101155.09;2347906;75;52768;-78
2022/12/25 05:23:15;;;;;;;;;;;;;;;12.69;59.21;101161.61;2378488;73;50332;-77
2022/12/25 05:26:18;;;;;;;;;;;;;;;12.68;59.18;101159.91;2361142;75;50457;-77
2022/12/25 05:29:20;;;;;;;;;;;;;;;12.69;59.20;101158.96;2345696;74;51626;-78
2022/12/25 05:32:21;;;;;;;;;;;;;;;12.71;59.16;101156.16;2300028;76;52347;-77
2022/12/25 05:35:23;;;;;;;;;;;;;;;12.68;59.23;101147.97;2345731;76;51492;-78
2022/12/25 05:38:33;;;;;;;;;;;;;;;12.73;59.17;101152.39;2416723;72;22436;-78
2022/12/25 05:41:35;;;;;;;;;;;;;;;12.66;59.28;101155.22;2338172;76;50084;-78
2022/12/25 05:44:36;;;;;;;;;;;;;;;12.67;59.23;101154.75;2338137;75;50086;-77
2022/12/25 05:47:38;;;;;;;;;;;;;;;12.68;59.21;101151.95;2315570;75;50598;-78
2022/12/25 05:50:39;;;;;;;;;;;;;;;12.68;59.22;101149.78;2338143;76;50511;-78
2022/12/25 05:53:41;;;;;;;;;;;;;;;12.68;59.19;101153.28;2338066;76;51215;-77
2022/12/25 05:56:42;;;;;;;;;;;;;;;12.68;59.18;101149.30;2305290;76;50905;-78
2022/12/25 05:59:44;;;;;;;;;;;;;;;12.68;59.21;101145.80;2335684;75;50510;-78
2022/12/25 06:02:46;;;;;;;;;;;;;;;12.68;59.15;101137.34;2335768;76;50526;-78
2022/12/25 06:05:47;;;;;;;;;;;;;;;12.67;59.20;101138.33;2335667;76;51316;-78
2022/12/25 06:08:49;;;;;;;;;;;;;;;12.68;59.16;101132.03;2335609;76;51333;-77
2022/12/25 06:11:50;;;;;;;;;;;;;;;12.67;59.15;101130.36;2301255;76;51370;-78
2022/12/25 06:14:52;;;;;;;;;;;;;;;12.69;59.10;101131.55;2335674;76;50132;-78
2022/12/25 06:17:53;;;;;;;;;;;;;;;12.67;59.16;101131.70;2335600;75;50125;-78
2022/12/25 06:20:55;;;;;;;;;;;;;;;12.66;59.26;101127.34;2276208;76;49991;-77
2022/12/25 06:23:57;;;;;;;;;;;;;;;12.67;59.16;101121.08;2298608;76;50649;-77
2022/12/25 06:26:59;;;;;;;;;;;;;;;12.68;59.14;101128.05;2297910;76;49881;-78
2022/12/25 06:30:00;;;;;;;;;;;;;;;12.68;59.13;101126.72;2335639;75;50543;-78
2022/12/25 06:33:02;;;;;;;;;;;;;;;12.68;59.11;101137.34;2276502;76;51047;-78
2022/12/25 06:36:08;;;;;;;;;;;;;;;12.66;59.20;101141.94;2300897;76;50201;-77
2022/12/25 06:39:10;;;;;;;;;;;;;;;12.66;59.22;101140.61;2313412;77;51559;-78
2022/12/25 06:42:11;;;;;;;;;;;;;;;12.67;59.20;101128.20;2314873;77;51354;-77
2022/12/25 06:45:13;;;;;;;;;;;;;;;12.67;59.17;101134.34;2314857;77;51412;-77
2022/12/25 06:48:14;;;;;;;;;;;;;;;12.67;59.13;101134.34;2282933;77;49946;-78
2022/12/25 06:51:20;;;;;;;;;;;;;;;12.66;59.16;101133.97;2282757;77;50193;-77
2022/12/25 06:54:21;;;;;;;;;;;;;;;12.67;59.12;101134.84;2314050;76;49911;-78
2022/12/25 06:57:23;;;;;;;;;;;;;;;12.67;59.12;101133.52;2259594;77;51499;-78
2022/12/25 07:00:24;;;;;;;;;;;;;;;12.67;59.14;101149.44;2284903;77;51340;-77
2022/12/25 07:03:27;;;;;;;;;;;;;;;12.67;59.12;101154.26;2315997;77;50530;-77
2022/12/25 07:06:28;;;;;;;;;;;;;;;12.67;59.10;101164.05;2315603;77;50596;-77
2022/12/25 07:09:30;;;;;;;;;;;;;;;12.66;59.12;101167.16;2284163;77;51578;-77
2022/12/25 07:12:31;;;;;;;;;;;;;;;12.67;59.14;101163.55;2315787;77;51445;-77
2022/12/25 07:15:33;;;;;;;;;;;;;;;12.66;59.15;101166.33;2284228;77;53296;-78
2022/12/25 07:18:34;;;;;;;;;;;;;;;12.67;59.12;101169.36;2284195;76;51316;-78
2022/12/25 07:21:36;;;;;;;;;;;;;;;12.66;59.07;101180.44;2284410;77;51122;-77
2022/12/25 07:24:38;;;;;;;;;;;;;;;12.68;59.05;101182.97;2315131;77;49850;-78
2022/12/25 07:27:40;;;;;;;;;;;;;;;12.66;59.13;101179.60;2266408;77;50742;-78
2022/12/25 07:30:41;;;;;;;;;;;;;;;12.67;59.06;101186.13;2287884;78;51519;-78
2022/12/25 07:33:43;;;;;;;;;;;;;;;12.66;59.11;101184.91;2232389;78;51070;-78
2022/12/25 07:36:45;;;;;;;;;;;;;;;12.67;59.05;101196.73;2258337;76;50005;-78
2022/12/25 07:39:46;;;;;;;;;;;;;;;12.65;59.18;101205.31;2311089;76;50237;-77
2022/12/25 07:42:48;;;;;;;;;;;;;;;12.67;59.06;101208.69;2344684;76;50590;-78
2022/12/25 07:45:51;;;;;;;;;;;;;;;12.67;59.16;101198.56;2345053;75;50161;-78
2022/12/25 07:48:53;;;;;;;;;;;;;;;12.66;59.10;101194.20;2344787;74;50087;-78
2022/12/25 07:51:54;;;;;;;;;;;;;;;12.67;59.06;101199.89;2344252;76;50576;-77
2022/12/25 07:54:56;;;;;;;;;;;;;;;12.67;59.08;101192.76;2342731;76;51422;-78
2022/12/25 07:57:57;;;;;;;;;;;;;;;12.68;59.01;101185.63;2274962;76;51541;-78
2022/12/25 08:01:03;;;;;;;;;;;;;;;12.68;59.01;101186.47;2325310;76;51475;-77
2022/12/25 08:04:05;;;;;;;;;;;;;;;12.69;58.96;101181.98;2345225;76;51440;-77
2022/12/25 08:07:06;;;;;;;;;;;;;;;12.68;59.05;101190.94;2344866;76;51466;-77
2022/12/25 08:10:08;;;;;;;;;;;;;;;12.69;58.97;101196.59;2325105;76;52350;-77
2022/12/25 08:13:10;;;;;;;;;;;;;;;12.68;59.01;101199.73;2325165;76;51435;-77
2022/12/25 08:16:11;;;;;;;;;;;;;;;12.66;59.05;101200.34;2325050;76;51475;-78
2022/12/25 08:19:13;;;;;;;;;;;;;;;12.67;59.04;101195.41;2345111;76;51475;-78
2022/12/25 08:22:15;;;;;;;;;;;;;;;12.67;59.03;101199.89;2325045;76;51598;-77
2022/12/25 08:25:16;;;;;;;;;;;;;;;12.66;59.06;101195.04;2311402;76;51380;-77
2022/12/25 08:28:18;;;;;;;;;;;;;;;12.67;59.03;101198.06;2299566;76;51297;-77
2022/12/25 08:31:20;;;;;;;;;;;;;;;12.67;59.02;101186.13;2323732;76;51384;-77
2022/12/25 08:34:22;;;;;;;;;;;;;;;12.70;58.93;101187.18;2294582;76;52472;-77
2022/12/25 08:37:24;;;;;;;;;;;;;;;12.69;58.97;101176.22;2324116;76;50643;-75
2022/12/25 08:40:26;;;;;;;;;;;;;;;12.67;59.07;101184.80;2307640;77;50285;-76
2022/12/25 08:43:27;;;;;;;;;;;;;;;12.69;58.96;101189.49;2307662;77;51423;-76
2022/12/25 08:46:29;;;;;;;;;;;;;;;12.69;58.98;101192.61;2285757;77;51022;-76
2022/12/25 08:49:30;;;;;;;;;;;;;;;12.69;59.02;101180.66;2286068;77;50151;-76
2022/12/25 08:52:32;;;;;;;;;;;;;;;12.68;58.99;101171.86;2285994;77;51361;-76
2022/12/25 08:55:33;;;;;;;;;;;;;;;12.72;58.88;101171.97;2286798;76;50033;-76
2022/12/25 08:58:35;;;;;;;;;;;;;;;12.70;58.91;101163.28;2308074;75;51193;-75
2022/12/25 09:01:37;;;;;;;;;;;;;;;12.69;58.93;101147.47;2321609;76;50178;-75
2022/12/25 09:04:39;;;;;;;;;;;;;;;12.69;58.92;101153.65;2321592;76;51521;-75
2022/12/25 09:07:40;;;;;;;;;;;;;;;12.69;58.97;101152.78;2321235;75;51433;-75
2022/12/25 09:10:42;;;;;;;;;;;;;;;12.73;58.85;101150.23;2309244;76;51231;-75
2022/12/25 09:13:43;;;;;;;;;;;;;;;12.71;58.87;101149.02;2307938;76;49902;-75
2022/12/25 09:16:45;;;;;;;;;;;;;;;12.72;58.86;101139.27;2307726;76;50263;-75
2022/12/25 09:19:46;;;;;;;;;;;;;;;12.73;58.83;101145.75;2307636;76;50648;-76
2022/12/25 09:22:48;;;;;;;;;;;;;;;12.69;58.98;101137.72;2282355;76;53737;-76
2022/12/25 09:25:50;;;;;;;;;;;;;;;12.72;58.89;101138.77;2313703;76;50284;-76
2022/12/25 09:28:51;;;;;;;;;;;;;;;12.72;58.84;101129.48;2309283;76;53298;-76
2022/12/25 09:31:53;;;;;;;;;;;;;;;12.71;58.91;101130.93;2309444;76;51413;-76
2022/12/25 09:34:54;;;;;;;;;;;;;;;12.71;58.90;101135.75;2323307;76;51068;-77
2022/12/25 09:37:56;;;;;;;;;;;;;;;12.70;58.91;101138.06;2325906;75;50119;-75
2022/12/25 09:40:59;;;;;;;;;;;;;;;12.70;58.97;101134.08;2324832;76;50455;-75
2022/12/25 09:44:02;;;;;;;;;;;;;;;12.70;58.92;101124.78;2344819;76;51333;-76
2022/12/25 09:47:08;;;;;;;;;;;;;;;12.70;58.93;101130.09;2324834;76;51657;-77
2022/12/25 09:50:16;;;;;;;;;;;;;;;12.73;58.83;101132.97;2343845;75;50433;-76
2022/12/25 09:53:22;;;;;;;;;;;;;;;12.71;58.91;101135.75;2344679;76;51450;-76
2022/12/25 09:56:26;;;;;;;;;;;;;;;12.72;58.87;101140.59;2321053;76;51504;-77
2022/12/25 09:59:28;;;;;;;;;;;;;;;12.71;58.90;101143.72;2285862;77;51714;-76
2022/12/25 10:02:34;;;;;;;;;;;;;;;12.70;58.94;101150.01;2305390;77;50134;-77
2022/12/25 10:05:53;;;;;;;;;;;;;;;12.69;58.94;101143.03;2305334;77;51483;-77
2022/12/25 10:09:13;;;;;;;;;;;;;;;12.69;59.02;101144.36;2305150;77;50708;-77
2022/12/25 10:12:16;;;;;;;;;;;;;;;12.71;58.91;101149.02;2286005;77;49877;-77
2022/12/25 10:15:26;;;;;;;;;;;;;;;12.69;58.96;101151.00;2305149;77;51571;-77
2022/12/25 10:18:29;;;;;;;;;;;;;;;12.69;58.98;101140.38;2305223;77;51480;-77
2022/12/25 10:21:30;;;;;;;;;;;;;;;12.70;58.96;101137.23;2305330;77;51363;-77
2022/12/25 10:24:40;;;;;;;;;;;;;;;12.70;58.97;101139.39;2297119;75;51566;-77
2022/12/25 10:27:41;;;;;;;;;;;;;;;12.71;58.94;101137.57;2318460;75;50234;-77
2022/12/25 10:30:44;;;;;;;;;;;;;;;12.72;58.89;101135.29;2286510;77;51317;-77
2022/12/25 10:33:45;;;;;;;;;;;;;;;12.72;58.83;101126.83;2308587;77;50193;-77
2022/12/25 10:36:48;;;;;;;;;;;;;;;12.69;59.00;101124.44;2286407;77;51555;-77
2022/12/25 10:39:50;;;;;;;;;;;;;;;12.70;59.01;101130.59;2297950;76;51465;-77
2022/12/25 10:42:53;;;;;;;;;;;;;;;12.69;58.95;101121.79;2294562;77;51461;-77
2022/12/25 10:45:55;;;;;;;;;;;;;;;12.71;58.90;101118.98;2296009;77;50618;-77
2022/12/25 10:48:58;;;;;;;;;;;;;;;12.70;58.91;101112.84;2263284;77;52342;-77
2022/12/25 10:52:00;;;;;;;;;;;;;;;12.68;58.99;101105.48;2294736;76;50609;-77
2022/12/25 10:55:03;;;;;;;;;;;;;;;12.70;58.91;101102.70;2317248;76;50383;-77
2022/12/25 10:58:05;;;;;;;;;;;;;;;12.68;59.00;101094.87;2336261;75;50246;-77
2022/12/25 11:01:06;;;;;;;;;;;;;;;12.70;58.95;101088.94;2305494;76;52375;-77
2022/12/25 11:04:10;;;;;;;;;;;;;;;12.71;58.88;101096.41;2335258;76;51604;-77
2022/12/25 11:07:16;;;;;;;;;;;;;;;12.71;58.89;101089.28;2334311;75;50650;-77
2022/12/25 11:10:40;;;;;;;;;;;;;;;12.71;58.93;101100.39;2334532;76;51466;-77
2022/12/25 11:13:43;;;;;;;;;;;;;;;12.70;58.97;101098.23;2335296;76;22719;-77
2022/12/25 11:16:44;;;;;;;;;;;;;;;12.70;58.96;101094.75;2334105;75;50257;-77
2022/12/25 11:19:47;;;;;;;;;;;;;;;12.70;58.92;101096.08;2335280;76;50324;-77
2022/12/25 11:22:49;;;;;;;;;;;;;;;12.69;58.94;101101.87;2334552;75;50636;-77
2022/12/25 11:25:58;;;;;;;;;;;;;;;12.69;58.98;101108.52;2277107;76;53716;-77
2022/12/25 11:29:00;;;;;;;;;;;;;;;12.69;58.98;101092.58;2338701;76;50638;-77
2022/12/25 11:32:02;;;;;;;;;;;;;;;12.69;58.97;101099.22;2339808;76;51414;-78
2022/12/25 11:35:05;;;;;;;;;;;;;;;12.69;58.95;101095.23;2308144;76;51490;-78
2022/12/25 11:38:07;;;;;;;;;;;;;;;12.71;58.96;101093.27;2307464;76;52468;-78
2022/12/25 11:41:08;;;;;;;;;;;;;;;12.69;58.98;101082.42;2321005;76;50618;-78
2022/12/25 11:44:12;;;;;;;;;;;;;;;12.68;59.01;101082.08;2320256;76;51455;-78
2022/12/25 11:47:18;;;;;;;;;;;;;;;12.69;58.99;101069.15;2292838;76;52414;-78
2022/12/25 11:50:34;;;;;;;;;;;;;;;12.69;58.95;101059.86;2295742;76;51115;-78
2022/12/25 11:53:40;;;;;;;;;;;;;;;12.70;58.91;101037.17;2320508;76;50607;-77
2022/12/25 11:56:41;;;;;;;;;;;;;;;12.68;59.01;101015.22;2305078;76;51521;-78
2022/12/25 11:59:47;;;;;;;;;;;;;;;12.67;59.03;101007.41;2320651;76;50699;-78
2022/12/25 12:02:51;;;;;;;;;;;;;;;12.66;59.04;100993.77;2295813;76;51699;-76
2022/12/25 12:05:56;;;;;;;;;;;;;;;12.66;59.02;100986.63;2319774;76;50626;-77
2022/12/25 12:08:59;;;;;;;;;;;;;;;12.66;59.01;100986.63;2320219;75;51445;-77
2022/12/25 12:12:03;;;;;;;;;;;;;;;12.67;58.98;100988.33;2320121;76;50773;-77
2022/12/25 12:15:10;;;;;;;;;;;;;;;12.64;59.06;100985.45;2238992;76;50123;-78
2022/12/25 12:18:28;;;;;;;;;;;;;;;12.66;59.06;100991.11;2320036;76;50986;-78
2022/12/25 12:21:29;;;;;;;;;;;;;;;12.66;59.03;101003.89;2320174;76;50232;-78
2022/12/25 12:24:43;;;;;;;;;;;;;;;12.66;59.04;101015.83;2309284;76;50675;-78
2022/12/25 12:27:45;;;;;;;;;;;;;;;12.66;59.06;101010.52;2304029;75;52437;-77
2022/12/25 12:30:48;;;;;;;;;;;;;;;12.67;59.02;101002.09;2308492;76;51425;-78
2022/12/25 12:33:51;;;;;;;;;;;;;;;12.66;59.01;100989.78;2321332;76;51422;-80
2022/12/25 12:37:00;;;;;;;;;;;;;;;12.67;59.01;100982.19;2321893;76;50260;-78
2022/12/25 12:40:02;;;;;;;;;;;;;;;12.65;59.10;100967.71;2309801;76;52729;-78
2022/12/25 12:43:04;;;;;;;;;;;;;;;12.66;59.03;100959.25;2322129;76;50800;-77
2022/12/25 12:46:07;;;;;;;;;;;;;;;12.66;59.01;100974.69;2322054;76;50618;-78
2022/12/25 12:49:21;;;;;;;;;;;;;;;12.65;59.08;100982.31;2322188;75;50672;-78
2022/12/25 12:52:24;;;;;;;;;;;;;;;12.64;59.11;100997.90;2282978;76;52515;-78
2022/12/25 12:55:29;;;;;;;;;;;;;;;12.65;59.06;100984.97;2310751;76;50451;-77
2022/12/25 12:58:35;;;;;;;;;;;;;;;12.66;59.03;100972.03;2320895;76;51516;-77
2022/12/25 13:01:41;;;;;;;;;;;;;;;12.63;59.06;100976.29;2322077;76;51467;-78
2022/12/25 13:04:50;;;;;;;;;;;;;;;12.65;59.06;100969.03;2297884;76;52561;-78
2022/12/25 13:08:10;;;;;;;;;;;;;;;12.63;59.15;100968.33;2321811;75;50630;-77
2022/12/25 13:11:16;;;;;;;;;;;;;;;12.63;59.11;100970.48;2322052;76;50725;-78
2022/12/25 13:14:19;;;;;;;;;;;;;;;12.62;59.15;100970.15;2321519;76;50750;-77
2022/12/25 13:17:21;;;;;;;;;;;;;;;12.64;59.07;100970.86;2320796;75;50633;-77
2022/12/25 13:20:24;;;;;;;;;;;;;;;12.63;59.04;100978.45;2321836;76;49965;-77
2022/12/25 13:23:29;;;;;;;;;;;;;;;12.64;59.08;100970.02;2321655;76;50714;-77
2022/12/25 13:26:30;;;;;;;;;;;;;;;12.64;59.03;100957.58;2293488;76;50729;-77
2022/12/25 13:29:33;;;;;;;;;;;;;;;12.66;59.07;100956.59;2224286;78;49425;-78
2022/12/25 13:32:34;;;;;;;;;;;;;;;12.64;59.09;100958.91;2249235;78;51465;-78
2022/12/25 13:35:38;;;;;;;;;;;;;;;12.63;59.10;100961.20;2272179;78;50189;-77
2022/12/25 13:38:43;;;;;;;;;;;;;;;12.62;59.11;100950.73;2271162;77;50330;-78
2022/12/25 13:45:16;;;;;;;;;;;;;;;12.63;59.08;100941.28;2272632;78;22327;-78
2022/12/25 13:48:19;;;;;;;;;;;;;;;12.62;59.07;100941.44;2271749;77;50741;-79
2022/12/25 13:51:21;;;;;;;;;;;;;;;12.62;59.09;100919.71;2272081;77;51489;-78
2022/12/25 13:54:23;;;;;;;;;;;;;;;12.63;59.05;100915.23;2259184;76;51042;-78
2022/12/25 13:57:26;;;;;;;;;;;;;;;12.62;59.06;100906.93;2293234;76;51483;-78
2022/12/25 14:00:29;;;;;;;;;;;;;;;12.62;59.05;100915.73;2272384;78;51496;-78
2022/12/25 14:03:39;;;;;;;;;;;;;;;12.62;59.06;100894.98;2272274;78;51514;-78
2022/12/25 14:06:40;;;;;;;;;;;;;;;12.62;59.06;100894.98;2248674;78;51656;-78
2022/12/25 14:09:42;;;;;;;;;;;;;;;12.60;59.09;100892.45;2272149;78;51384;-77
2022/12/25 14:12:43;;;;;;;;;;;;;;;12.62;59.06;100885.69;2272240;78;50665;-78
2022/12/25 14:15:46;;;;;;;;;;;;;;;12.61;59.09;100891.96;2272072;77;51436;-77
2022/12/25 14:18:58;;;;;;;;;;;;;;;12.59;59.16;100899.25;2248695;78;51184;-77
2022/12/25 14:22:04;;;;;;;;;;;;;;;12.61;59.08;100902.12;2248389;78;50742;-77
2022/12/25 14:25:07;;;;;;;;;;;;;;;12.62;59.04;100912.23;2293656;76;51440;-78
2022/12/25 14:28:11;;;;;;;;;;;;;;;12.60;59.10;100907.55;2280193;76;50347;-77
2022/12/25 14:31:12;;;;;;;;;;;;;;;12.60;59.12;100904.89;2247677;78;51142;-77
2022/12/25 14:34:21;;;;;;;;;;;;;;;12.61;59.11;100908.75;2271900;78;50123;-77
2022/12/25 14:37:23;;;;;;;;;;;;;;;12.60;59.14;100911.04;2271820;78;50258;-77
2022/12/25 14:40:26;;;;;;;;;;;;;;;12.60;59.10;100904.89;2271909;77;50722;-77
2022/12/25 14:43:28;;;;;;;;;;;;;;;12.59;59.13;100905.88;2248586;78;51691;-77
2022/12/25 14:46:30;;;;;;;;;;;;;;;12.59;59.10;100895.27;2271933;77;50624;-77
2022/12/25 14:49:32;;;;;;;;;;;;;;;12.61;59.07;100881.34;2248773;78;51446;-77
2022/12/25 14:52:35;;;;;;;;;;;;;;;12.60;59.12;100875.70;2248496;78;51395;-77
2022/12/25 14:55:37;;;;;;;;;;;;;;;12.60;59.09;100874.37;2284824;76;49784;-78
2022/12/25 14:58:40;;;;;;;;;;;;;;;12.62;59.02;100867.11;2301631;76;50119;-78
2022/12/25 15:01:42;;;;;;;;;;;;;;;12.60;59.06;100845.17;2301078;76;50308;-78
2022/12/25 15:04:43;;;;;;;;;;;;;;;12.60;59.13;100835.88;2301097;77;51425;-78
2022/12/25 15:07:45;;;;;;;;;;;;;;;12.59;59.10;100846.16;2248453;77;51740;-78
2022/12/25 15:10:47;;;;;;;;;;;;;;;12.59;59.07;100846.99;2279656;77;50296;-77
2022/12/25 15:13:48;;;;;;;;;;;;;;;12.57;59.15;100840.98;2301242;76;51533;-78
2022/12/25 15:16:51;;;;;;;;;;;;;;;12.58;59.12;100841.81;2279480;77;50036;-78
2022/12/25 15:19:53;;;;;;;;;;;;;;;12.59;59.09;100842.17;2279415;77;52551;-78
2022/12/25 15:22:55;;;;;;;;;;;;;;;12.60;59.06;100823.44;2300920;77;51383;-78
2022/12/25 15:25:56;;;;;;;;;;;;;;;12.58;59.12;100826.72;2316428;76;51460;-78
2022/12/25 15:28:58;;;;;;;;;;;;;;;12.58;59.12;100836.50;2295636;76;51482;-78
2022/12/25 15:31:59;;;;;;;;;;;;;;;12.57;59.21;100834.84;2295782;76;51205;-77
2022/12/25 15:35:01;;;;;;;;;;;;;;;12.59;59.14;100828.91;2320357;76;50220;-78
2022/12/25 15:38:03;;;;;;;;;;;;;;;12.57;59.24;100829.53;2319720;76;50129;-78
2022/12/25 15:41:05;;;;;;;;;;;;;;;12.58;59.18;100840.48;2293814;76;50635;-78
2022/12/25 15:44:06;;;;;;;;;;;;;;;12.57;59.14;100841.47;2314201;77;50229;-78
2022/12/25 15:47:11;;;;;;;;;;;;;;;12.57;59.13;100838.32;2282651;77;50274;-78
2022/12/25 15:50:13;;;;;;;;;;;;;;;12.59;59.12;100827.58;2314169;76;51626;-78
2022/12/25 15:53:14;;;;;;;;;;;;;;;12.59;59.10;100818.29;2313972;77;51414;-78
2022/12/25 15:56:16;;;;;;;;;;;;;;;12.59;59.11;100812.98;2269374;77;52288;-78
2022/12/25 15:59:18;;;;;;;;;;;;;;;12.60;59.08;100802.70;2315712;75;51558;-78
2022/12/25 16:02:20;;;;;;;;;;;;;;;12.59;59.08;100810.33;2284825;77;51496;-77
2022/12/25 16:05:21;;;;;;;;;;;;;;;12.57;59.13;100797.18;2284634;77;51176;-78
2022/12/25 16:08:23;;;;;;;;;;;;;;;12.57;59.13;100791.04;2284171;77;51629;-78
2022/12/25 16:11:25;;;;;;;;;;;;;;;12.57;59.14;100797.67;2315690;77;50584;-78
2022/12/25 16:14:26;;;;;;;;;;;;;;;12.57;59.17;100798.51;2315855;77;51466;-78
2022/12/25 16:17:28;;;;;;;;;;;;;;;12.56;59.13;100778.27;2315769;77;51384;-78
2022/12/25 16:20:29;;;;;;;;;;;;;;;12.57;59.11;100764.50;2284554;77;51083;-78
2022/12/25 16:23:31;;;;;;;;;;;;;;;12.56;59.19;100762.80;2315761;77;50316;-78
2022/12/25 16:26:33;;;;;;;;;;;;;;;12.56;59.21;100766.32;2273768;77;50692;-78
2022/12/25 16:29:34;;;;;;;;;;;;;;;12.56;59.17;100771.63;2314098;77;50228;-79
2022/12/25 16:32:36;;;;;;;;;;;;;;;12.56;59.16;100776.94;2282515;77;51143;-79
2022/12/25 16:35:37;;;;;;;;;;;;;;;12.56;59.14;100772.09;2282800;77;50778;-78
2022/12/25 16:38:39;;;;;;;;;;;;;;;12.55;59.19;100764.62;2313740;76;50575;-79
2022/12/25 16:41:41;;;;;;;;;;;;;;;12.55;59.22;100766.45;2289722;76;51402;-78
2022/12/25 16:44:42;;;;;;;;;;;;;;;12.56;59.17;100753.52;2300526;76;52277;-78
2022/12/25 16:47:44;;;;;;;;;;;;;;;12.55;59.22;100756.66;2334243;76;51448;-78
2022/12/25 16:50:45;;;;;;;;;;;;;;;12.55;59.21;100746.54;2334372;76;50589;-78
2022/12/25 16:53:47;;;;;;;;;;;;;;;12.56;59.17;100733.61;2333539;76;50588;-78
2022/12/25 16:56:50;;;;;;;;;;;;;;;12.56;59.16;100722.52;2292343;77;52363;-78
2022/12/25 16:59:52;;;;;;;;;;;;;;;12.55;59.24;100716.84;2292317;76;50655;-79
2022/12/25 17:02:54;;;;;;;;;;;;;;;12.56;59.22;100712.38;2292448;77;50309;-78
2022/12/25 17:05:56;;;;;;;;;;;;;;;12.56;59.20;100705.73;2292396;77;50687;-78
2022/12/25 17:08:58;;;;;;;;;;;;;;;12.55;59.19;100690.80;2284213;76;52478;-79
2022/12/25 17:12:00;;;;;;;;;;;;;;;12.55;59.18;100685.00;2292309;77;50345;-79
2022/12/25 17:15:01;;;;;;;;;;;;;;;12.55;59.21;100690.31;2259607;77;50146;-78
2022/12/25 17:18:03;;;;;;;;;;;;;;;12.56;59.24;100673.89;2292137;76;50045;-79
2022/12/25 17:21:04;;;;;;;;;;;;;;;12.55;59.21;100673.05;2284708;77;51682;-79
2022/12/25 17:24:06;;;;;;;;;;;;;;;12.56;59.19;100674.75;2259806;76;50474;-78
2022/12/25 17:27:08;;;;;;;;;;;;;;;12.56;59.25;100671.23;2294158;76;51480;-78
2022/12/25 17:30:10;;;;;;;;;;;;;;;12.56;59.16;100661.94;2322861;76;50642;-78
2022/12/25 17:33:11;;;;;;;;;;;;;;;12.56;59.25;100665.92;2291482;76;51423;-78